sensor_id;sensor_type;location;lat;lon;timestamp;P1;durP1;ratioP1;P2;durP2;ratioP2
35126;SDS011;21300;52.006;5.798;2022-12-24T00:01:54;1.75;;;1.15;;
35126;SDS011;21300;52.006;5.798;2022-12-24T00:04:19;0.10;;;0.10;;
35126;SDS011;21300;52.006;5.798;2022-12-24T00:06:45;1.05;;;0.95;;
35126;SDS011;21300;52.006;5.798;2022-12-24T00:09:29;0.10;;;0.10;;
35126;SDS011;21300;52.006;5.798;2022-12-24T00:11:54;1.20;;;0.95;;
35126;SDS011;21300;52.006;5.798;2022-12-24T00:14:20;0.10;;;0.10;;
35126;SDS011;21300;52.006;5.798;2022-12-24T00:16:46;0.25;;;0.20;;
35126;SDS011;21300;52.006;5.798;2022-12-24T00:19:11;0.10;;;0.10;;
35126;SDS011;21300;52.006;5.798;2022-12-24T00:21:37;0.55;;;0.55;;
35126;SDS011;21300;52.006;5.798;2022-12-24T00:24:03;4.40;;;1.20;;
35126;SDS011;21300;52.006;5.798;2022-12-24T00:26:30;13.80;;;1.42;;
35126;SDS011;21300;52.006;5.798;2022-12-24T00:28:58;0.10;;;0.10;;
35126;SDS011;21300;52.006;5.798;2022-12-24T00:31:24;0.93;;;0.85;;
35126;SDS011;21300;52.006;5.798;2022-12-24T00:33:50;0.10;;;0.10;;
35126;SDS011;21300;52.006;5.798;2022-12-24T00:36:16;0.10;;;0.10;;
35126;SDS011;21300;52.006;5.798;2022-12-24T00:38:43;0.22;;;0.20;;
35126;SDS011;21300;52.006;5.798;2022-12-24T00:41:09;0.30;;;0.30;;
35126;SDS011;21300;52.006;5.798;2022-12-24T00:44:21;0.90;;;0.90;;
35126;SDS011;21300;52.006;5.798;2022-12-24T00:46:40;0.13;;;0.13;;
35126;SDS011;21300;52.006;5.798;2022-12-24T00:49:06;0.10;;;0.10;;
35126;SDS011;21300;52.006;5.798;2022-12-24T00:51:33;0.38;;;0.38;;
35126;SDS011;21300;52.006;5.798;2022-12-24T00:53:59;0.68;;;0.68;;
35126;SDS011;21300;52.006;5.798;2022-12-24T00:56:25;0.10;;;0.10;;
35126;SDS011;21300;52.006;5.798;2022-12-24T00:58:51;0.30;;;0.30;;
35126;SDS011;21300;52.006;5.798;2022-12-24T01:01:17;0.43;;;0.43;;
35126;SDS011;21300;52.006;5.798;2022-12-24T01:03:44;0.20;;;0.20;;
35126;SDS011;21300;52.006;5.798;2022-12-24T01:06:11;0.38;;;0.38;;
35126;SDS011;21300;52.006;5.798;2022-12-24T01:08:38;0.85;;;0.63;;
35126;SDS011;21300;52.006;5.798;2022-12-24T01:11:05;0.10;;;0.10;;
35126;SDS011;21300;52.006;5.798;2022-12-24T01:13:31;1.35;;;1.25;;
35126;SDS011;21300;52.006;5.798;2022-12-24T01:15:58;0.32;;;0.32;;
35126;SDS011;21300;52.006;5.798;2022-12-24T01:18:24;0.32;;;0.30;;
35126;SDS011;21300;52.006;5.798;2022-12-24T01:20:56;0.68;;;0.50;;
35126;SDS011;21300;52.006;5.798;2022-12-24T01:23:26;1.35;;;0.47;;
35126;SDS011;21300;52.006;5.798;2022-12-24T01:25:53;0.82;;;0.73;;
35126;SDS011;21300;52.006;5.798;2022-12-24T01:28:19;1.45;;;0.57;;
35126;SDS011;21300;52.006;5.798;2022-12-24T01:30:45;0.10;;;0.10;;
35126;SDS011;21300;52.006;5.798;2022-12-24T01:33:12;8.35;;;2.05;;
35126;SDS011;21300;52.006;5.798;2022-12-24T01:35:38;0.20;;;0.20;;
35126;SDS011;21300;52.006;5.798;2022-12-24T01:38:04;0.75;;;0.75;;
35126;SDS011;21300;52.006;5.798;2022-12-24T01:40:30;0.10;;;0.10;;
35126;SDS011;21300;52.006;5.798;2022-12-24T01:43:18;0.10;;;0.10;;
35126;SDS011;21300;52.006;5.798;2022-12-24T01:45:55;0.32;;;0.32;;
35126;SDS011;21300;52.006;5.798;2022-12-24T01:53:37;0.10;;;0.10;;
35126;SDS011;21300;52.006;5.798;2022-12-24T01:56:04;0.28;;;0.22;;
35126;SDS011;21300;52.006;5.798;2022-12-24T01:58:33;0.55;;;0.55;;
35126;SDS011;21300;52.006;5.798;2022-12-24T02:01:00;0.43;;;0.43;;
35126;SDS011;21300;52.006;5.798;2022-12-24T02:03:26;0.10;;;0.10;;
35126;SDS011;21300;52.006;5.798;2022-12-24T02:05:53;0.20;;;0.20;;
35126;SDS011;21300;52.006;5.798;2022-12-24T02:08:21;0.45;;;0.45;;
35126;SDS011;21300;52.006;5.798;2022-12-24T02:10:47;0.10;;;0.10;;
35126;SDS011;21300;52.006;5.798;2022-12-24T02:13:14;4.15;;;0.95;;
35126;SDS011;21300;52.006;5.798;2022-12-24T02:16:07;0.20;;;0.20;;
35126;SDS011;21300;52.006;5.798;2022-12-24T02:29:31;0.15;;;0.15;;
35126;SDS011;21300;52.006;5.798;2022-12-24T02:32:22;0.75;;;0.68;;
35126;SDS011;21300;52.006;5.798;2022-12-24T02:35:01;0.40;;;0.40;;
35126;SDS011;21300;52.006;5.798;2022-12-24T02:37:44;0.10;;;0.10;;
35126;SDS011;21300;52.006;5.798;2022-12-24T02:40:18;0.10;;;0.10;;
35126;SDS011;21300;52.006;5.798;2022-12-24T02:42:50;0.00;;;0.00;;
35126;SDS011;21300;52.006;5.798;2022-12-24T02:45:21;0.10;;;0.10;;
35126;SDS011;21300;52.006;5.798;2022-12-24T02:47:51;0.10;;;0.10;;
35126;SDS011;21300;52.006;5.798;2022-12-24T02:50:18;0.15;;;0.15;;
35126;SDS011;21300;52.006;5.798;2022-12-24T02:52:45;0.30;;;0.30;;
35126;SDS011;21300;52.006;5.798;2022-12-24T02:55:15;0.10;;;0.10;;
35126;SDS011;21300;52.006;5.798;2022-12-24T03:00:48;0.20;;;0.20;;
35126;SDS011;21300;52.006;5.798;2022-12-24T03:04:00;0.90;;;0.90;;
35126;SDS011;21300;52.006;5.798;2022-12-24T03:12:12;0.10;;;0.10;;
35126;SDS011;21300;52.006;5.798;2022-12-24T03:14:42;0.10;;;0.10;;
35126;SDS011;21300;52.006;5.798;2022-12-24T03:17:08;0.10;;;0.10;;
35126;SDS011;21300;52.006;5.798;2022-12-24T03:19:34;0.35;;;0.20;;
35126;SDS011;21300;52.006;5.798;2022-12-24T03:22:01;0.10;;;0.10;;
35126;SDS011;21300;52.006;5.798;2022-12-24T03:24:31;0.28;;;0.28;;
35126;SDS011;21300;52.006;5.798;2022-12-24T03:26:57;0.10;;;0.10;;
35126;SDS011;21300;52.006;5.798;2022-12-24T03:29:24;0.85;;;0.73;;
35126;SDS011;21300;52.006;5.798;2022-12-24T03:31:51;0.20;;;0.20;;
35126;SDS011;21300;52.006;5.798;2022-12-24T03:34:22;0.10;;;0.10;;
35126;SDS011;21300;52.006;5.798;2022-12-24T03:36:48;0.55;;;0.30;;
35126;SDS011;21300;52.006;5.798;2022-12-24T03:39:15;0.10;;;0.10;;
35126;SDS011;21300;52.006;5.798;2022-12-24T03:41:40;0.10;;;0.10;;
35126;SDS011;21300;52.006;5.798;2022-12-24T03:44:06;0.10;;;0.10;;
35126;SDS011;21300;52.006;5.798;2022-12-24T03:46:31;0.10;;;0.10;;
35126;SDS011;21300;52.006;5.798;2022-12-24T03:48:57;0.10;;;0.10;;
35126;SDS011;21300;52.006;5.798;2022-12-24T03:51:23;0.10;;;0.10;;
35126;SDS011;21300;52.006;5.798;2022-12-24T03:53:53;0.10;;;0.10;;
35126;SDS011;21300;52.006;5.798;2022-12-24T03:56:19;0.52;;;0.52;;
35126;SDS011;21300;52.006;5.798;2022-12-24T03:58:46;0.10;;;0.10;;
35126;SDS011;21300;52.006;5.798;2022-12-24T04:01:11;0.57;;;0.57;;
35126;SDS011;21300;52.006;5.798;2022-12-24T04:03:37;0.32;;;0.32;;
35126;SDS011;21300;52.006;5.798;2022-12-24T04:06:04;0.15;;;0.15;;
35126;SDS011;21300;52.006;5.798;2022-12-24T04:08:37;4.13;;;1.45;;
35126;SDS011;21300;52.006;5.798;2022-12-24T04:11:04;0.10;;;0.10;;
35126;SDS011;21300;52.006;5.798;2022-12-24T04:13:33;0.30;;;0.30;;
35126;SDS011;21300;52.006;5.798;2022-12-24T04:16:03;0.10;;;0.10;;
35126;SDS011;21300;52.006;5.798;2022-12-24T04:18:33;0.10;;;0.10;;
35126;SDS011;21300;52.006;5.798;2022-12-24T04:20:59;0.10;;;0.10;;
35126;SDS011;21300;52.006;5.798;2022-12-24T04:23:25;0.40;;;0.40;;
35126;SDS011;21300;52.006;5.798;2022-12-24T04:25:50;1.55;;;0.40;;
35126;SDS011;21300;52.006;5.798;2022-12-24T04:28:16;0.90;;;0.90;;
35126;SDS011;21300;52.006;5.798;2022-12-24T04:30:42;0.10;;;0.10;;
35126;SDS011;21300;52.006;5.798;2022-12-24T04:33:09;0.10;;;0.10;;
35126;SDS011;21300;52.006;5.798;2022-12-24T04:35:41;0.10;;;0.10;;
35126;SDS011;21300;52.006;5.798;2022-12-24T04:38:07;0.10;;;0.10;;
35126;SDS011;21300;52.006;5.798;2022-12-24T04:40:34;0.10;;;0.10;;
35126;SDS011;21300;52.006;5.798;2022-12-24T04:42:59;0.10;;;0.10;;
35126;SDS011;21300;52.006;5.798;2022-12-24T04:45:25;0.63;;;0.30;;
35126;SDS011;21300;52.006;5.798;2022-12-24T04:47:50;0.43;;;0.43;;
35126;SDS011;21300;52.006;5.798;2022-12-24T04:50:16;0.10;;;0.10;;
35126;SDS011;21300;52.006;5.798;2022-12-24T04:52:42;0.10;;;0.10;;
35126;SDS011;21300;52.006;5.798;2022-12-24T04:55:07;0.10;;;0.10;;
35126;SDS011;21300;52.006;5.798;2022-12-24T04:57:33;0.10;;;0.10;;
35126;SDS011;21300;52.006;5.798;2022-12-24T04:59:59;0.10;;;0.10;;
35126;SDS011;21300;52.006;5.798;2022-12-24T05:02:26;0.10;;;0.10;;
35126;SDS011;21300;52.006;5.798;2022-12-24T05:04:52;0.30;;;0.30;;
35126;SDS011;21300;52.006;5.798;2022-12-24T05:07:17;1.10;;;0.45;;
35126;SDS011;21300;52.006;5.798;2022-12-24T05:09:43;0.10;;;0.10;;
35126;SDS011;21300;52.006;5.798;2022-12-24T05:12:09;0.17;;;0.17;;
35126;SDS011;21300;52.006;5.798;2022-12-24T05:14:34;0.15;;;0.15;;
35126;SDS011;21300;52.006;5.798;2022-12-24T05:17:00;0.32;;;0.32;;
35126;SDS011;21300;52.006;5.798;2022-12-24T05:19:25;0.50;;;0.50;;
35126;SDS011;21300;52.006;5.798;2022-12-24T05:21:51;3.00;;;1.38;;
35126;SDS011;21300;52.006;5.798;2022-12-24T05:24:35;0.10;;;0.10;;
35126;SDS011;21300;52.006;5.798;2022-12-24T05:27:19;0.10;;;0.10;;
35126;SDS011;21300;52.006;5.798;2022-12-24T05:29:45;0.10;;;0.10;;
35126;SDS011;21300;52.006;5.798;2022-12-24T05:32:10;0.10;;;0.10;;
35126;SDS011;21300;52.006;5.798;2022-12-24T05:34:36;0.10;;;0.10;;
35126;SDS011;21300;52.006;5.798;2022-12-24T05:37:01;0.20;;;0.20;;
35126;SDS011;21300;52.006;5.798;2022-12-24T05:39:27;0.32;;;0.32;;
35126;SDS011;21300;52.006;5.798;2022-12-24T05:41:53;1.65;;;0.95;;
35126;SDS011;21300;52.006;5.798;2022-12-24T05:44:18;0.10;;;0.10;;
35126;SDS011;21300;52.006;5.798;2022-12-24T05:46:44;0.10;;;0.10;;
35126;SDS011;21300;52.006;5.798;2022-12-24T05:49:09;0.10;;;0.10;;
35126;SDS011;21300;52.006;5.798;2022-12-24T05:51:35;0.10;;;0.10;;
35126;SDS011;21300;52.006;5.798;2022-12-24T05:54:01;0.55;;;0.55;;
35126;SDS011;21300;52.006;5.798;2022-12-24T05:56:26;0.10;;;0.10;;
35126;SDS011;21300;52.006;5.798;2022-12-24T05:58:52;0.88;;;0.88;;
35126;SDS011;21300;52.006;5.798;2022-12-24T06:01:19;0.52;;;0.52;;
35126;SDS011;21300;52.006;5.798;2022-12-24T06:03:45;0.10;;;0.10;;
35126;SDS011;21300;52.006;5.798;2022-12-24T06:06:14;0.35;;;0.25;;
35126;SDS011;21300;52.006;5.798;2022-12-24T06:08:44;0.20;;;0.20;;
35126;SDS011;21300;52.006;5.798;2022-12-24T06:11:12;0.30;;;0.30;;
35126;SDS011;21300;52.006;5.798;2022-12-24T06:13:39;0.20;;;0.20;;
35126;SDS011;21300;52.006;5.798;2022-12-24T06:16:07;0.10;;;0.10;;
35126;SDS011;21300;52.006;5.798;2022-12-24T06:18:35;0.10;;;0.10;;
35126;SDS011;21300;52.006;5.798;2022-12-24T06:21:01;1.98;;;0.63;;
35126;SDS011;21300;52.006;5.798;2022-12-24T06:23:28;0.10;;;0.10;;
35126;SDS011;21300;52.006;5.798;2022-12-24T06:25:56;0.32;;;0.32;;
35126;SDS011;21300;52.006;5.798;2022-12-24T06:28:24;0.10;;;0.10;;
35126;SDS011;21300;52.006;5.798;2022-12-24T06:30:51;0.80;;;0.80;;
35126;SDS011;21300;52.006;5.798;2022-12-24T06:33:16;0.10;;;0.10;;
35126;SDS011;21300;52.006;5.798;2022-12-24T06:35:46;0.10;;;0.10;;
35126;SDS011;21300;52.006;5.798;2022-12-24T06:38:12;0.30;;;0.30;;
35126;SDS011;21300;52.006;5.798;2022-12-24T06:40:39;0.10;;;0.10;;
35126;SDS011;21300;52.006;5.798;2022-12-24T06:43:05;0.10;;;0.10;;
35126;SDS011;21300;52.006;5.798;2022-12-24T06:45:31;0.13;;;0.13;;
35126;SDS011;21300;52.006;5.798;2022-12-24T06:47:57;0.77;;;0.77;;
35126;SDS011;21300;52.006;5.798;2022-12-24T06:50:23;2.05;;;1.85;;
35126;SDS011;21300;52.006;5.798;2022-12-24T06:52:48;0.10;;;0.10;;
35126;SDS011;21300;52.006;5.798;2022-12-24T06:55:14;0.10;;;0.10;;
35126;SDS011;21300;52.006;5.798;2022-12-24T06:57:40;0.25;;;0.25;;
35126;SDS011;21300;52.006;5.798;2022-12-24T07:00:06;0.10;;;0.10;;
35126;SDS011;21300;52.006;5.798;2022-12-24T07:02:33;0.10;;;0.10;;
35126;SDS011;21300;52.006;5.798;2022-12-24T07:04:58;1.45;;;1.23;;
35126;SDS011;21300;52.006;5.798;2022-12-24T07:07:24;0.30;;;0.30;;
35126;SDS011;21300;52.006;5.798;2022-12-24T07:09:50;0.30;;;0.30;;
35126;SDS011;21300;52.006;5.798;2022-12-24T07:12:15;0.10;;;0.10;;
35126;SDS011;21300;52.006;5.798;2022-12-24T07:14:41;0.13;;;0.13;;
35126;SDS011;21300;52.006;5.798;2022-12-24T07:17:06;1.73;;;0.60;;
35126;SDS011;21300;52.006;5.798;2022-12-24T07:19:32;0.10;;;0.10;;
35126;SDS011;21300;52.006;5.798;2022-12-24T07:21:58;0.20;;;0.20;;
35126;SDS011;21300;52.006;5.798;2022-12-24T07:24:24;0.10;;;0.10;;
35126;SDS011;21300;52.006;5.798;2022-12-24T07:26:49;0.52;;;0.52;;
35126;SDS011;21300;52.006;5.798;2022-12-24T07:29:15;1.45;;;1.27;;
35126;SDS011;21300;52.006;5.798;2022-12-24T07:31:40;1.20;;;0.40;;
35126;SDS011;21300;52.006;5.798;2022-12-24T07:34:06;0.20;;;0.17;;
35126;SDS011;21300;52.006;5.798;2022-12-24T07:36:32;1.25;;;1.23;;
35126;SDS011;21300;52.006;5.798;2022-12-24T07:38:57;3.13;;;1.45;;
35126;SDS011;21300;52.006;5.798;2022-12-24T07:41:23;0.10;;;0.10;;
35126;SDS011;21300;52.006;5.798;2022-12-24T07:43:49;0.55;;;0.55;;
35126;SDS011;21300;52.006;5.798;2022-12-24T07:46:14;0.10;;;0.10;;
35126;SDS011;21300;52.006;5.798;2022-12-24T07:48:40;0.20;;;0.20;;
35126;SDS011;21300;52.006;5.798;2022-12-24T07:51:06;0.60;;;0.60;;
35126;SDS011;21300;52.006;5.798;2022-12-24T07:53:31;0.10;;;0.10;;
35126;SDS011;21300;52.006;5.798;2022-12-24T07:55:57;0.40;;;0.40;;
35126;SDS011;21300;52.006;5.798;2022-12-24T07:58:24;0.25;;;0.25;;
35126;SDS011;21300;52.006;5.798;2022-12-24T08:00:59;0.25;;;0.25;;
35126;SDS011;21300;52.006;5.798;2022-12-24T08:05:51;0.10;;;0.10;;
35126;SDS011;21300;52.006;5.798;2022-12-24T08:08:17;0.13;;;0.13;;
35126;SDS011;21300;52.006;5.798;2022-12-24T08:10:43;0.13;;;0.13;;
35126;SDS011;21300;52.006;5.798;2022-12-24T08:13:10;10.88;;;1.00;;
35126;SDS011;21300;52.006;5.798;2022-12-24T08:15:36;0.30;;;0.30;;
35126;SDS011;21300;52.006;5.798;2022-12-24T08:18:01;0.20;;;0.20;;
35126;SDS011;21300;52.006;5.798;2022-12-24T08:20:27;1.15;;;0.52;;
35126;SDS011;21300;52.006;5.798;2022-12-24T08:22:53;0.20;;;0.20;;
35126;SDS011;21300;52.006;5.798;2022-12-24T08:25:18;0.20;;;0.20;;
35126;SDS011;21300;52.006;5.798;2022-12-24T08:27:44;0.10;;;0.10;;
35126;SDS011;21300;52.006;5.798;2022-12-24T08:30:11;0.38;;;0.35;;
35126;SDS011;21300;52.006;5.798;2022-12-24T08:32:37;0.35;;;0.35;;
35126;SDS011;21300;52.006;5.798;2022-12-24T08:35:03;0.47;;;0.43;;
35126;SDS011;21300;52.006;5.798;2022-12-24T08:37:29;0.10;;;0.10;;
35126;SDS011;21300;52.006;5.798;2022-12-24T08:39:54;0.10;;;0.10;;
35126;SDS011;21300;52.006;5.798;2022-12-24T08:42:20;0.10;;;0.10;;
35126;SDS011;21300;52.006;5.798;2022-12-24T08:44:45;0.10;;;0.10;;
35126;SDS011;21300;52.006;5.798;2022-12-24T08:47:11;0.40;;;0.40;;
35126;SDS011;21300;52.006;5.798;2022-12-24T08:49:37;0.22;;;0.22;;
35126;SDS011;21300;52.006;5.798;2022-12-24T08:52:04;0.10;;;0.10;;
35126;SDS011;21300;52.006;5.798;2022-12-24T08:54:29;0.63;;;0.63;;
35126;SDS011;21300;52.006;5.798;2022-12-24T08:56:55;0.20;;;0.20;;
35126;SDS011;21300;52.006;5.798;2022-12-24T08:59:21;0.10;;;0.10;;
35126;SDS011;21300;52.006;5.798;2022-12-24T09:01:46;0.20;;;0.20;;
35126;SDS011;21300;52.006;5.798;2022-12-24T09:04:12;0.10;;;0.10;;
35126;SDS011;21300;52.006;5.798;2022-12-24T09:06:37;54.75;;;8.95;;
35126;SDS011;21300;52.006;5.798;2022-12-24T09:09:03;57.03;;;9.18;;
35126;SDS011;21300;52.006;5.798;2022-12-24T09:11:30;61.30;;;10.15;;
35126;SDS011;21300;52.006;5.798;2022-12-24T09:13:55;62.38;;;10.45;;
35126;SDS011;21300;52.006;5.798;2022-12-24T09:16:21;67.38;;;11.43;;
35126;SDS011;21300;52.006;5.798;2022-12-24T09:18:47;69.38;;;10.52;;
35126;SDS011;21300;52.006;5.798;2022-12-24T09:21:13;68.22;;;11.05;;
35126;SDS011;21300;52.006;5.798;2022-12-24T09:23:41;63.70;;;9.60;;
35126;SDS011;21300;52.006;5.798;2022-12-24T09:26:09;66.50;;;11.63;;
35126;SDS011;21300;52.006;5.798;2022-12-24T09:28:38;66.80;;;11.60;;
35126;SDS011;21300;52.006;5.798;2022-12-24T09:31:04;66.32;;;10.95;;
35126;SDS011;21300;52.006;5.798;2022-12-24T09:33:31;74.32;;;11.38;;
35126;SDS011;21300;52.006;5.798;2022-12-24T09:35:59;72.43;;;11.45;;
35126;SDS011;21300;52.006;5.798;2022-12-24T09:38:26;66.65;;;11.43;;
35126;SDS011;21300;52.006;5.798;2022-12-24T09:40:52;57.42;;;11.30;;
35126;SDS011;21300;52.006;5.798;2022-12-24T09:43:26;81.22;;;12.50;;
35126;SDS011;21300;52.006;5.798;2022-12-24T09:48:31;62.95;;;10.93;;
35126;SDS011;21300;52.006;5.798;2022-12-24T09:51:02;58.30;;;9.55;;
35126;SDS011;21300;52.006;5.798;2022-12-24T09:56:23;84.43;;;11.00;;
35126;SDS011;21300;52.006;5.798;2022-12-24T09:58:57;71.60;;;12.85;;
35126;SDS011;21300;52.006;5.798;2022-12-24T10:01:31;70.07;;;10.30;;
35126;SDS011;21300;52.006;5.798;2022-12-24T10:04:11;68.95;;;11.32;;
35126;SDS011;21300;52.006;5.798;2022-12-24T10:06:43;73.82;;;11.07;;
35126;SDS011;21300;52.006;5.798;2022-12-24T10:12:08;50.25;;;9.23;;
35126;SDS011;21300;52.006;5.798;2022-12-24T10:20:21;61.80;;;9.93;;
35126;SDS011;21300;52.006;5.798;2022-12-24T10:22:54;65.22;;;11.20;;
35126;SDS011;21300;52.006;5.798;2022-12-24T10:25:34;72.80;;;9.60;;
35126;SDS011;21300;52.006;5.798;2022-12-24T10:28:18;66.80;;;9.18;;
35126;SDS011;21300;52.006;5.798;2022-12-24T10:30:48;65.28;;;8.50;;
35126;SDS011;21300;52.006;5.798;2022-12-24T10:33:20;48.75;;;9.05;;
35126;SDS011;21300;52.006;5.798;2022-12-24T10:36:22;48.83;;;9.60;;
35126;SDS011;21300;52.006;5.798;2022-12-24T10:38:52;49.58;;;8.75;;
35126;SDS011;21300;52.006;5.798;2022-12-24T10:41:18;58.35;;;8.60;;
35126;SDS011;21300;52.006;5.798;2022-12-24T10:43:44;60.50;;;8.88;;
35126;SDS011;21300;52.006;5.798;2022-12-24T10:46:31;52.58;;;8.80;;
35126;SDS011;21300;52.006;5.798;2022-12-24T10:49:00;60.80;;;9.35;;
35126;SDS011;21300;52.006;5.798;2022-12-24T10:51:48;59.97;;;10.73;;
35126;SDS011;21300;52.006;5.798;2022-12-24T10:54:22;61.22;;;10.68;;
35126;SDS011;21300;52.006;5.798;2022-12-24T10:56:58;50.58;;;8.55;;
35126;SDS011;21300;52.006;5.798;2022-12-24T11:02:23;58.40;;;8.68;;
35126;SDS011;21300;52.006;5.798;2022-12-24T11:04:57;58.45;;;8.40;;
35126;SDS011;21300;52.006;5.798;2022-12-24T11:07:24;52.70;;;8.50;;
35126;SDS011;21300;52.006;5.798;2022-12-24T11:09:54;43.88;;;7.90;;
35126;SDS011;21300;52.006;5.798;2022-12-24T11:12:22;52.72;;;8.65;;
35126;SDS011;21300;52.006;5.798;2022-12-24T11:15:00;51.10;;;8.63;;
35126;SDS011;21300;52.006;5.798;2022-12-24T11:17:32;56.38;;;8.35;;
35126;SDS011;21300;52.006;5.798;2022-12-24T11:19:58;54.05;;;9.00;;
35126;SDS011;21300;52.006;5.798;2022-12-24T11:22:27;47.78;;;8.63;;
35126;SDS011;21300;52.006;5.798;2022-12-24T11:24:56;49.78;;;8.43;;
35126;SDS011;21300;52.006;5.798;2022-12-24T11:27:49;46.88;;;7.68;;
35126;SDS011;21300;52.006;5.798;2022-12-24T11:32:41;45.85;;;6.90;;
35126;SDS011;21300;52.006;5.798;2022-12-24T11:35:14;38.17;;;6.60;;
35126;SDS011;21300;52.006;5.798;2022-12-24T11:37:42;49.45;;;6.97;;
35126;SDS011;21300;52.006;5.798;2022-12-24T11:40:17;50.83;;;6.78;;
35126;SDS011;21300;52.006;5.798;2022-12-24T11:42:45;43.13;;;6.88;;
35126;SDS011;21300;52.006;5.798;2022-12-24T11:47:47;44.58;;;9.73;;
35126;SDS011;21300;52.006;5.798;2022-12-24T11:50:26;51.92;;;8.45;;
35126;SDS011;21300;52.006;5.798;2022-12-24T11:55:34;38.10;;;6.07;;
35126;SDS011;21300;52.006;5.798;2022-12-24T11:58:50;41.95;;;5.65;;
35126;SDS011;21300;52.006;5.798;2022-12-24T12:00:55;43.45;;;7.10;;
35126;SDS011;21300;52.006;5.798;2022-12-24T12:03:49;41.88;;;6.05;;
35126;SDS011;21300;52.006;5.798;2022-12-24T12:06:30;41.83;;;7.00;;
35126;SDS011;21300;52.006;5.798;2022-12-24T12:09:00;39.67;;;7.50;;
35126;SDS011;21300;52.006;5.798;2022-12-24T12:11:31;43.78;;;6.65;;
35126;SDS011;21300;52.006;5.798;2022-12-24T12:13:59;49.67;;;6.38;;
35126;SDS011;21300;52.006;5.798;2022-12-24T12:16:28;41.72;;;6.47;;
35126;SDS011;21300;52.006;5.798;2022-12-24T12:22:34;47.53;;;9.90;;
35126;SDS011;21300;52.006;5.798;2022-12-24T12:25:19;30.98;;;6.18;;
35126;SDS011;21300;52.006;5.798;2022-12-24T12:30:31;33.55;;;5.13;;
35126;SDS011;21300;52.006;5.798;2022-12-24T12:35:38;38.53;;;5.32;;
35126;SDS011;21300;52.006;5.798;2022-12-24T12:38:14;34.78;;;4.63;;
35126;SDS011;21300;52.006;5.798;2022-12-24T12:55:15;33.95;;;5.70;;
35126;SDS011;21300;52.006;5.798;2022-12-24T12:58:03;28.10;;;5.28;;
35126;SDS011;21300;52.006;5.798;2022-12-24T13:00:41;33.28;;;5.38;;
35126;SDS011;21300;52.006;5.798;2022-12-24T13:12:03;35.75;;;5.25;;
35126;SDS011;21300;52.006;5.798;2022-12-24T13:20:04;35.13;;;5.18;;
35126;SDS011;21300;52.006;5.798;2022-12-24T13:22:48;32.53;;;5.03;;
35126;SDS011;21300;52.006;5.798;2022-12-24T13:25:19;29.40;;;5.80;;
35126;SDS011;21300;52.006;5.798;2022-12-24T13:27:47;25.13;;;4.05;;
35126;SDS011;21300;52.006;5.798;2022-12-24T13:30:46;21.90;;;4.10;;
35126;SDS011;21300;52.006;5.798;2022-12-24T13:33:08;30.00;;;4.22;;
35126;SDS011;21300;52.006;5.798;2022-12-24T13:35:35;26.27;;;4.65;;
35126;SDS011;21300;52.006;5.798;2022-12-24T13:38:28;29.90;;;4.85;;
35126;SDS011;21300;52.006;5.798;2022-12-24T13:40:53;31.73;;;4.45;;
35126;SDS011;21300;52.006;5.798;2022-12-24T13:43:19;25.60;;;3.85;;
35126;SDS011;21300;52.006;5.798;2022-12-24T13:45:47;37.72;;;5.63;;
35126;SDS011;21300;52.006;5.798;2022-12-24T13:53:59;20.42;;;3.90;;
35126;SDS011;21300;52.006;5.798;2022-12-24T13:56:24;34.33;;;4.93;;
35126;SDS011;21300;52.006;5.798;2022-12-24T13:58:54;29.48;;;4.75;;
35126;SDS011;21300;52.006;5.798;2022-12-24T14:01:35;22.88;;;4.15;;
35126;SDS011;21300;52.006;5.798;2022-12-24T14:04:06;24.10;;;4.35;;
35126;SDS011;21300;52.006;5.798;2022-12-24T14:06:34;30.45;;;4.45;;
35126;SDS011;21300;52.006;5.798;2022-12-24T14:09:08;25.90;;;4.15;;
35126;SDS011;21300;52.006;5.798;2022-12-24T14:17:05;31.88;;;4.45;;
35126;SDS011;21300;52.006;5.798;2022-12-24T14:24:45;28.02;;;4.30;;
35126;SDS011;21300;52.006;5.798;2022-12-24T14:27:24;28.08;;;3.95;;
35126;SDS011;21300;52.006;5.798;2022-12-24T14:40:42;34.90;;;4.03;;
35126;SDS011;21300;52.006;5.798;2022-12-24T14:49:01;26.90;;;3.83;;
35126;SDS011;21300;52.006;5.798;2022-12-24T14:51:36;28.58;;;4.15;;
35126;SDS011;21300;52.006;5.798;2022-12-24T14:54:30;23.35;;;3.95;;
35126;SDS011;21300;52.006;5.798;2022-12-24T14:57:09;25.10;;;3.72;;
35126;SDS011;21300;52.006;5.798;2022-12-24T14:59:42;23.23;;;4.03;;
35126;SDS011;21300;52.006;5.798;2022-12-24T15:02:30;28.73;;;5.10;;
35126;SDS011;21300;52.006;5.798;2022-12-24T15:07:53;27.90;;;4.20;;
35126;SDS011;21300;52.006;5.798;2022-12-24T15:10:26;22.55;;;4.50;;
35126;SDS011;21300;52.006;5.798;2022-12-24T15:12:55;29.75;;;5.35;;
35126;SDS011;21300;52.006;5.798;2022-12-24T15:15:25;28.70;;;5.05;;
35126;SDS011;21300;52.006;5.798;2022-12-24T15:17:51;30.75;;;5.05;;
35126;SDS011;21300;52.006;5.798;2022-12-24T15:20:19;25.65;;;4.80;;
35126;SDS011;21300;52.006;5.798;2022-12-24T15:22:49;23.55;;;5.88;;
35126;SDS011;21300;52.006;5.798;2022-12-24T15:25:24;34.60;;;6.18;;
35126;SDS011;21300;52.006;5.798;2022-12-24T15:27:52;32.60;;;5.97;;
35126;SDS011;21300;52.006;5.798;2022-12-24T15:30:21;34.33;;;6.70;;
35126;SDS011;21300;52.006;5.798;2022-12-24T15:32:49;29.02;;;6.43;;
35126;SDS011;21300;52.006;5.798;2022-12-24T15:35:33;29.77;;;8.13;;
35126;SDS011;21300;52.006;5.798;2022-12-24T15:38:20;33.70;;;8.18;;
35126;SDS011;21300;52.006;5.798;2022-12-24T15:40:53;34.20;;;9.40;;
35126;SDS011;21300;52.006;5.798;2022-12-24T15:43:19;34.80;;;8.10;;
35126;SDS011;21300;52.006;5.798;2022-12-24T15:45:45;30.77;;;7.93;;
35126;SDS011;21300;52.006;5.798;2022-12-24T15:48:13;40.92;;;6.63;;
35126;SDS011;21300;52.006;5.798;2022-12-24T15:50:49;34.92;;;7.18;;
35126;SDS011;21300;52.006;5.798;2022-12-24T15:53:21;35.38;;;7.35;;
35126;SDS011;21300;52.006;5.798;2022-12-24T15:55:59;33.63;;;7.25;;
35126;SDS011;21300;52.006;5.798;2022-12-24T15:58:30;28.33;;;6.40;;
35126;SDS011;21300;52.006;5.798;2022-12-24T16:03:59;36.55;;;7.60;;
35126;SDS011;21300;52.006;5.798;2022-12-24T16:06:24;31.25;;;7.47;;
35126;SDS011;21300;52.006;5.798;2022-12-24T16:08:51;27.00;;;6.57;;
35126;SDS011;21300;52.006;5.798;2022-12-24T16:11:36;37.28;;;7.65;;
35126;SDS011;21300;52.006;5.798;2022-12-24T16:16:42;28.38;;;8.02;;
35126;SDS011;21300;52.006;5.798;2022-12-24T16:19:23;30.38;;;7.30;;
35126;SDS011;21300;52.006;5.798;2022-12-24T16:21:58;30.73;;;6.70;;
35126;SDS011;21300;52.006;5.798;2022-12-24T16:24:48;31.60;;;6.68;;
35126;SDS011;21300;52.006;5.798;2022-12-24T16:27:16;30.63;;;7.60;;
35126;SDS011;21300;52.006;5.798;2022-12-24T16:29:42;29.35;;;6.90;;
35126;SDS011;21300;52.006;5.798;2022-12-24T16:32:44;30.08;;;7.80;;
35126;SDS011;21300;52.006;5.798;2022-12-24T16:35:04;26.35;;;7.18;;
35126;SDS011;21300;52.006;5.798;2022-12-24T16:37:32;22.45;;;6.10;;
35126;SDS011;21300;52.006;5.798;2022-12-24T16:39:58;29.10;;;7.05;;
35126;SDS011;21300;52.006;5.798;2022-12-24T16:42:24;26.63;;;6.65;;
35126;SDS011;21300;52.006;5.798;2022-12-24T16:45:09;27.83;;;5.85;;
35126;SDS011;21300;52.006;5.798;2022-12-24T16:47:35;29.30;;;6.70;;
35126;SDS011;21300;52.006;5.798;2022-12-24T16:50:19;24.70;;;6.67;;
35126;SDS011;21300;52.006;5.798;2022-12-24T16:52:45;28.02;;;6.70;;
35126;SDS011;21300;52.006;5.798;2022-12-24T16:55:13;21.38;;;6.13;;
35126;SDS011;21300;52.006;5.798;2022-12-24T16:57:40;23.75;;;6.63;;
35126;SDS011;21300;52.006;5.798;2022-12-24T17:00:07;21.20;;;6.07;;
35126;SDS011;21300;52.006;5.798;2022-12-24T17:02:38;22.85;;;6.55;;
35126;SDS011;21300;52.006;5.798;2022-12-24T17:05:03;20.67;;;6.22;;
35126;SDS011;21300;52.006;5.798;2022-12-24T17:07:29;25.17;;;7.28;;